Time;durP1;ratioP1;P1;durP2;ratioP2;P2;SDS_P1;SDS_P2;PMS_P1;PMS_P2;Temp;Humidity;BMP_temperature;BMP_pressure;BME280_temperature;BME280_humidity;BME280_pressure;Samples;Min_cycle;Max_cycle;Signal;HPM_P1;HPM_P2
2023/11/27 00:01:31;;;;;;;5.70;2.65;;;;;;;5.54;52.12;100687.91;4914623;29;20055;-74
2023/11/27 00:03:59;;;;;;;5.57;2.50;;;;;;;5.52;52.04;100682.56;4913617;29;20414;-73
2023/11/27 00:06:27;;;;;;;4.85;2.50;;;;;;;5.52;52.00;100684.41;4915317;29;20040;-74
2023/11/27 00:08:56;;;;;;;4.78;2.60;;;;;;;5.54;52.07;100682.47;4909414;29;20127;-73
2023/11/27 00:11:24;;;;;;;4.57;2.58;;;;;;;5.52;52.19;100670.84;4895498;29;20099;-74
2023/11/27 00:13:52;;;;;;;4.18;2.30;;;;;;;5.52;52.01;100670.84;4912571;29;20048;-74
2023/11/27 00:16:20;;;;;;;4.38;2.50;;;;;;;5.51;52.17;100669.97;4898629;29;20111;-73
2023/11/27 00:18:48;;;;;;;6.63;2.58;;;;;;;5.51;52.07;100666.38;4907471;29;20047;-73
2023/11/27 00:21:16;;;;;;;6.03;2.42;;;;;;;5.51;52.07;100663.66;4913504;29;20048;-73
2023/11/27 00:23:44;;;;;;;5.00;2.22;;;;;;;5.51;51.95;100659.09;4908715;29;20064;-74
2023/11/27 00:26:14;;;;;;;5.05;2.58;;;;;;;5.52;51.65;100654.56;4905450;29;20139;-72
2023/11/27 00:28:51;;;;;;;4.63;2.33;;;;;;;5.50;51.98;100645.63;4907856;29;20036;-73
2023/11/27 00:31:19;;;;;;;3.75;2.20;;;;;;;5.51;51.94;100647.38;4915438;29;20517;-73
2023/11/27 00:33:47;;;;;;;3.80;2.10;;;;;;;5.50;51.86;100640.22;4896236;29;20047;-73
2023/11/27 00:36:15;;;;;;;3.95;2.35;;;;;;;5.49;51.91;100644.78;4896604;29;20041;-74
2023/11/27 00:38:43;;;;;;;6.95;2.47;;;;;;;5.49;51.68;100644.78;4915800;29;20052;-73
2023/11/27 00:41:14;;;;;;;5.88;2.58;;;;;;;5.49;51.61;100633.03;4911412;29;20414;-72
2023/11/27 00:43:44;;;;;;;3.97;2.30;;;;;;;5.48;51.78;100631.28;4895992;29;20504;-73
2023/11/27 00:46:14;;;;;;;4.10;2.20;;;;;;;5.49;51.54;100638.47;4913820;29;20052;-74
2023/11/27 00:48:42;;;;;;;4.72;2.67;;;;;;;5.48;51.61;100631.28;4911883;29;20135;-73
2023/11/27 00:51:10;;;;;;;4.57;2.42;;;;;;;5.48;51.50;100625.88;4895050;29;20036;-74
2023/11/27 00:53:38;;;;;;;5.50;2.40;;;;;;;5.47;51.64;100621.41;4900000;29;20055;-75
2023/11/27 00:56:08;;;;;;;4.78;2.50;;;;;;;5.48;51.54;100620.44;4915563;29;20432;-75
2023/11/27 00:58:37;;;;;;;6.68;3.00;;;;;;;5.46;51.60;100614.28;4912758;29;20426;-75
2023/11/27 01:01:07;;;;;;;4.80;2.60;;;;;;;5.47;51.44;100606.00;4926989;29;20099;-74
2023/11/27 01:03:35;;;;;;;5.40;2.70;;;;;;;5.46;51.52;100595.28;4899636;29;20072;-74
2023/11/27 01:06:04;;;;;;;4.43;2.58;;;;;;;5.45;51.58;100607.97;4901494;29;20060;-74
2023/11/27 01:08:32;;;;;;;4.78;2.55;;;;;;;5.45;51.47;100593.53;4901254;29;20307;-74
2023/11/27 01:11:00;;;;;;;4.72;2.50;;;;;;;5.46;51.61;100592.56;4905085;29;20513;-74
2023/11/27 01:13:28;;;;;;;5.07;2.85;;;;;;;5.45;51.62;100585.41;4906275;29;20041;-74
2023/11/27 01:15:56;;;;;;;4.00;2.55;;;;;;;5.46;51.47;100576.28;4917721;29;20048;-74
2023/11/27 01:18:26;;;;;;;4.00;2.55;;;;;;;5.46;51.44;100577.13;4899522;29;20127;-74
2023/11/27 01:20:54;;;;;;;5.32;2.75;;;;;;;5.45;51.56;100566.41;4918465;29;20075;-74
2023/11/27 01:23:22;;;;;;;4.95;2.65;;;;;;;5.44;51.51;100561.94;4896229;29;20053;-74
2023/11/27 01:25:50;;;;;;;4.65;2.72;;;;;;;5.44;51.41;100561.94;4903266;29;20547;-75
2023/11/27 01:28:19;;;;;;;5.70;3.05;;;;;;;5.43;51.44;100546.63;4914446;29;20048;-75
2023/11/27 01:30:47;;;;;;;6.53;2.83;;;;;;;5.43;51.30;100552.94;4918924;29;20072;-74
2023/11/27 01:33:16;;;;;;;4.20;2.63;;;;;;;5.44;51.34;100545.66;4918617;29;20529;-74
2023/11/27 01:35:45;;;;;;;5.70;2.80;;;;;;;5.44;51.26;100542.94;4916537;29;20062;-75
2023/11/27 01:38:13;;;;;;;5.32;2.90;;;;;;;5.43;51.57;100533.94;4918248;29;20040;-74
2023/11/27 01:40:41;;;;;;;4.90;2.63;;;;;;;5.43;51.32;100542.06;4918259;29;20529;-74
2023/11/27 01:43:14;;;;;;;5.90;3.05;;;;;;;5.45;51.27;100531.97;4915850;29;20415;-74
2023/11/27 01:45:43;;;;;;;5.13;3.13;;;;;;;5.42;51.67;100526.75;4897631;29;20525;-75
2023/11/27 01:48:11;;;;;;;5.47;3.13;;;;;;;5.42;51.30;100518.63;4914766;29;20447;-75
2023/11/27 01:50:39;;;;;;;5.40;3.00;;;;;;;5.42;51.45;100518.63;4916673;29;20048;-74
2023/11/27 01:53:09;;;;;;;6.03;2.92;;;;;;;5.42;51.62;100509.59;4923694;29;20413;-75
2023/11/27 01:55:37;;;;;;;5.38;3.13;;;;;;;5.41;51.85;100508.75;4919581;29;20084;-75
2023/11/27 01:58:05;;;;;;;4.85;3.08;;;;;;;5.41;51.76;100499.72;4892209;29;20143;-75
2023/11/27 02:00:34;;;;;;;5.88;3.22;;;;;;;5.41;51.86;100497.88;4903493;29;20144;-76
2023/11/27 02:03:02;;;;;;;7.85;3.97;;;;;;;5.40;51.61;100495.28;4897337;29;20637;-76
2023/11/27 02:05:30;;;;;;;6.10;3.08;;;;;;;5.40;51.85;100488.00;4913369;29;20143;-74
2023/11/27 02:07:59;;;;;;;5.22;2.88;;;;;;;5.39;51.90;100479.97;4898243;29;20032;-76
2023/11/27 02:10:28;;;;;;;6.20;3.40;;;;;;;5.41;51.80;100484.31;4912798;29;20063;-76
2023/11/27 02:12:56;;;;;;;7.82;3.60;;;;;;;5.39;51.88;100474.53;4918885;29;20130;-76
2023/11/27 02:15:24;;;;;;;6.18;3.47;;;;;;;5.40;51.81;100470.84;4921588;29;20044;-74
2023/11/27 02:17:52;;;;;;;6.00;3.15;;;;;;;5.39;51.95;100469.09;4897120;29;20083;-75
2023/11/27 02:20:21;;;;;;;4.15;2.88;;;;;;;5.39;51.83;100466.41;4896706;29;20047;-74
2023/11/27 02:22:48;;;;;;;5.53;3.28;;;;;;;5.37;52.00;100463.81;4897457;29;20036;-75
2023/11/27 02:25:18;;;;;;;4.45;2.92;;;;;;;5.38;52.03;100462.81;4900475;29;20054;-74
2023/11/27 02:27:46;;;;;;;5.20;2.90;;;;;;;5.36;52.11;100461.22;4896531;29;20421;-75
2023/11/27 02:30:16;;;;;;;5.18;2.80;;;;;;;5.36;52.08;100447.63;4920506;29;20482;-77
2023/11/27 02:32:44;;;;;;;4.40;2.60;;;;;;;5.35;52.16;100446.78;4914510;29;20068;-78
2023/11/27 02:35:11;;;;;;;5.28;2.90;;;;;;;5.35;52.05;100438.63;4906547;29;20048;-76
2023/11/27 02:37:40;;;;;;;4.03;2.35;;;;;;;5.34;52.17;100431.47;4911098;29;20486;-77
2023/11/27 02:40:10;;;;;;;5.20;2.67;;;;;;;5.36;52.13;100425.94;4901225;29;20060;-76
2023/11/27 02:42:40;;;;;;;5.57;3.25;;;;;;;5.34;51.76;100415.19;4898222;29;20044;-77
2023/11/27 02:45:10;;;;;;;6.15;2.90;;;;;;;5.33;52.07;100412.56;4896555;29;20044;-76
2023/11/27 02:47:38;;;;;;;7.05;2.97;;;;;;;5.32;51.89;100408.13;4913184;29;20521;-76
2023/11/27 02:50:08;;;;;;;5.00;2.65;;;;;;;5.32;52.11;100408.13;4914413;29;20414;-75
2023/11/27 02:52:36;;;;;;;6.03;3.20;;;;;;;5.30;52.04;100397.38;4896534;29;20139;-75
2023/11/27 02:55:05;;;;;;;5.25;3.15;;;;;;;5.29;52.13;100399.22;4921412;29;20437;-74
2023/11/27 02:57:33;;;;;;;6.57;3.20;;;;;;;5.28;51.70;100389.38;4913845;29;20067;-76
2023/11/27 03:00:03;;;;;;;5.80;3.00;;;;;;;5.29;52.18;100382.09;4905942;29;20044;-76
2023/11/27 03:02:32;;;;;;;6.47;2.88;;;;;;;5.28;51.88;100383.94;4895820;29;20107;-76
2023/11/27 03:05:00;;;;;;;6.05;3.10;;;;;;;5.27;51.95;100379.50;4907645;29;20194;-76
2023/11/27 03:07:28;;;;;;;5.13;3.28;;;;;;;5.27;52.06;100374.06;4916464;29;20048;-75
2023/11/27 03:09:56;;;;;;;5.60;3.50;;;;;;;5.28;52.04;100374.94;4893774;29;20036;-76
2023/11/27 03:12:24;;;;;;;5.38;2.97;;;;;;;5.27;52.03;100368.66;4911836;29;20043;-76
2023/11/27 03:14:52;;;;;;;5.65;3.47;;;;;;;5.26;52.08;100361.47;4895426;29;20467;-75
2023/11/27 03:17:21;;;;;;;5.45;3.42;;;;;;;5.28;51.75;100358.66;4916819;29;20453;-76
2023/11/27 03:19:52;;;;;;;6.05;3.60;;;;;;;5.26;52.01;100366.91;4899405;29;20046;-75
2023/11/27 03:22:20;;;;;;;7.20;3.60;;;;;;;5.26;52.05;100358.78;4897286;29;20517;-76
2023/11/27 03:24:48;;;;;;;5.00;3.28;;;;;;;5.26;52.00;100353.34;4918706;29;20063;-75
2023/11/27 03:27:16;;;;;;;5.30;3.65;;;;;;;5.26;51.77;100349.75;4912618;29;20074;-75
2023/11/27 03:29:44;;;;;;;6.20;3.25;;;;;;;5.26;51.68;100350.63;4897235;29;20071;-75
2023/11/27 03:32:12;;;;;;;5.53;3.53;;;;;;;5.26;51.71;100342.50;4898585;29;20051;-75
2023/11/27 03:34:41;;;;;;;6.50;3.80;;;;;;;5.27;51.75;100346.06;4916725;29;20486;-75
2023/11/27 03:37:09;;;;;;;5.57;3.30;;;;;;;5.25;51.80;100331.75;4895433;29;20573;-75
2023/11/27 03:39:37;;;;;;;6.90;3.70;;;;;;;5.25;51.87;100327.19;4913840;29;20036;-76
2023/11/27 03:42:06;;;;;;;7.55;3.90;;;;;;;5.25;51.54;100332.63;4900828;29;20043;-75
2023/11/27 03:44:34;;;;;;;7.57;3.63;;;;;;;5.24;51.85;100324.59;4905968;29;20048;-76
2023/11/27 03:47:02;;;;;;;6.20;3.50;;;;;;;5.23;51.88;100314.72;4911360;29;20051;-76
2023/11/27 03:49:31;;;;;;;5.28;3.45;;;;;;;5.24;51.87;100316.44;4911744;29;20174;-75
2023/11/27 03:52:04;;;;;;;7.50;3.47;;;;;;;5.23;51.96;100310.16;4913119;29;20055;-75
2023/11/27 03:54:33;;;;;;;5.07;3.53;;;;;;;5.22;51.99;100303.00;4912642;29;20076;-76
2023/11/27 03:57:01;;;;;;;5.28;3.53;;;;;;;5.22;52.01;100297.56;4894247;29;20053;-76
2023/11/27 03:59:29;;;;;;;5.80;3.70;;;;;;;5.23;52.01;100296.59;4912791;29;20123;-76
2023/11/27 04:01:57;;;;;;;5.55;3.13;;;;;;;5.22;51.79;100284.00;4893158;29;20565;-76
2023/11/27 04:04:26;;;;;;;5.88;3.25;;;;;;;5.24;51.87;100286.59;4904619;29;20048;-76
2023/11/27 04:06:55;;;;;;;5.40;4.00;;;;;;;5.24;52.01;100275.75;4912748;29;20048;-77
2023/11/27 04:09:25;;;;;;;8.85;4.13;;;;;;;5.24;51.97;100273.91;4892377;29;20036;-76
2023/11/27 04:11:53;;;;;;;8.05;3.97;;;;;;;5.23;52.08;100269.47;4893922;29;20481;-75
2023/11/27 04:14:21;;;;;;;5.55;3.53;;;;;;;5.23;52.03;100268.59;4912770;29;20462;-76
2023/11/27 04:16:49;;;;;;;6.22;3.83;;;;;;;5.22;51.79;100265.00;4916812;29;20071;-76
2023/11/27 04:19:17;;;;;;;6.65;4.07;;;;;;;5.22;52.00;100262.28;4911851;29;20131;-76
2023/11/27 04:21:45;;;;;;;6.68;4.13;;;;;;;5.23;52.09;100258.59;4911702;29;20064;-75
2023/11/27 04:24:14;;;;;;;7.97;3.92;;;;;;;5.22;52.13;100258.72;4895788;29;20043;-75
2023/11/27 04:26:44;;;;;;;8.98;4.25;;;;;;;5.23;52.02;100252.31;4895750;29;20052;-76
2023/11/27 04:29:12;;;;;;;7.63;3.70;;;;;;;5.21;52.10;100249.72;4895802;29;20075;-77
2023/11/27 04:31:40;;;;;;;6.47;4.35;;;;;;;5.20;52.13;100242.56;4911022;29;20112;-77
2023/11/27 04:34:08;;;;;;;7.38;4.05;;;;;;;5.20;52.03;100242.56;4914378;29;20058;-76
2023/11/27 04:36:36;;;;;;;6.03;3.78;;;;;;;5.20;52.01;100230.84;4918826;29;20518;-76
2023/11/27 04:39:04;;;;;;;6.15;3.88;;;;;;;5.20;52.04;100236.28;4914226;29;20052;-77
2023/11/27 04:41:32;;;;;;;5.80;3.88;;;;;;;5.20;52.00;100234.44;4916374;29;20048;-76
2023/11/27 04:44:02;;;;;;;5.50;3.75;;;;;;;5.21;52.16;100225.28;4899573;29;20059;-76
2023/11/27 04:46:30;;;;;;;6.00;3.53;;;;;;;5.18;52.15;100222.84;4916450;29;20463;-77
2023/11/27 04:48:58;;;;;;;7.75;3.80;;;;;;;5.19;51.87;100215.56;4898784;29;20330;-77
2023/11/27 04:51:26;;;;;;;7.30;3.78;;;;;;;5.19;52.32;100207.41;4914729;29;20215;-77
2023/11/27 04:53:54;;;;;;;5.82;3.80;;;;;;;5.17;52.13;100202.09;4935406;29;20055;-77
2023/11/27 04:56:21;;;;;;;7.22;3.72;;;;;;;5.17;52.06;100201.22;4935515;29;20130;-77
2023/11/27 04:58:49;;;;;;;6.50;3.92;;;;;;;5.16;52.05;100186.78;4928041;29;20050;-76
2023/11/27 05:01:19;;;;;;;7.32;3.83;;;;;;;5.16;51.99;100181.34;4899656;29;20513;-77
2023/11/27 05:03:47;;;;;;;6.55;4.00;;;;;;;5.12;52.08;100174.44;4916758;29;20051;-76
2023/11/27 05:06:15;;;;;;;8.77;3.67;;;;;;;5.13;52.09;100170.72;4916315;29;20048;-75
2023/11/27 05:08:45;;;;;;;6.80;4.00;;;;;;;5.10;52.16;100162.84;4916128;29;20108;-77
2023/11/27 05:11:18;;;;;;;6.35;3.63;;;;;;;5.12;51.86;100170.88;4899337;29;20126;-76
2023/11/27 05:13:47;;;;;;;7.35;3.65;;;;;;;5.09;51.94;100163.81;4916795;29;20048;-77
2023/11/27 05:16:15;;;;;;;6.38;3.97;;;;;;;5.08;52.00;100147.66;4916248;29;20124;-76
2023/11/27 05:18:45;;;;;;;4.65;3.42;;;;;;;5.08;52.12;100148.53;4899443;29;20048;-75
2023/11/27 05:21:14;;;;;;;7.25;3.85;;;;;;;5.05;52.15;100147.88;4916491;29;20139;-77
2023/11/27 05:23:42;;;;;;;5.90;3.75;;;;;;;5.04;51.87;100124.47;4915778;29;20055;-76
2023/11/27 05:26:11;;;;;;;6.47;3.83;;;;;;;5.03;51.82;100120.91;4916524;29;20041;-77
2023/11/27 05:28:39;;;;;;;5.78;4.15;;;;;;;5.00;51.98;100114.81;4916729;29;20071;-77
2023/11/27 05:31:07;;;;;;;8.05;4.05;;;;;;;4.98;52.10;100106.81;4898937;29;20199;-77
2023/11/27 05:33:36;;;;;;;6.15;3.92;;;;;;;4.97;52.06;100099.66;4899101;29;20072;-76
2023/11/27 05:36:09;;;;;;;5.70;3.90;;;;;;;4.97;51.82;100099.66;4915853;29;20494;-76
2023/11/27 05:38:38;;;;;;;6.80;4.03;;;;;;;4.93;52.15;100096.31;4915653;29;20068;-77
2023/11/27 05:41:07;;;;;;;6.75;3.90;;;;;;;4.92;51.90;100085.59;4899084;29;20516;-76
2023/11/27 05:43:35;;;;;;;6.57;3.80;;;;;;;4.90;52.03;100084.84;4915617;29;20466;-77
2023/11/27 05:46:04;;;;;;;6.53;3.45;;;;;;;4.89;52.01;100085.81;4900093;29;20044;-77
2023/11/27 05:48:32;;;;;;;6.78;3.67;;;;;;;4.86;52.24;100080.66;4900906;29;20040;-79
2023/11/27 05:51:00;;;;;;;6.43;3.78;;;;;;;4.85;52.22;100065.34;4917408;29;20573;-80
2023/11/27 05:53:31;;;;;;;6.97;3.80;;;;;;;4.84;52.22;100056.34;4901303;29;20044;-79
2023/11/27 05:56:00;;;;;;;6.32;3.67;;;;;;;4.81;52.12;100048.44;4900985;29;20052;-78
2023/11/27 05:58:28;;;;;;;6.47;3.58;;;;;;;4.81;52.11;100034.03;4917579;29;20067;-81
2023/11/27 06:00:56;;;;;;;7.13;3.95;;;;;;;4.78;52.31;100024.31;4918602;29;20044;-79
2023/11/27 06:03:25;;;;;;;6.35;4.25;;;;;;;4.77;52.34;100033.41;4917815;29;20048;-78
2023/11/27 06:05:53;;;;;;;5.80;3.67;;;;;;;4.76;52.37;100017.25;4917897;29;20084;-79
2023/11/27 06:08:21;;;;;;;4.70;3.33;;;;;;;4.75;52.50;100016.38;4917590;29;20126;-76
2023/11/27 06:10:50;;;;;;;7.90;4.10;;;;;;;4.74;52.53;100008.38;4918280;29;20032;-76
2023/11/27 06:13:18;;;;;;;5.88;3.55;;;;;;;4.71;52.50;99995.06;4901696;29;20601;-79
2023/11/27 06:15:47;;;;;;;6.72;3.47;;;;;;;4.70;52.63;99983.38;4918070;29;20059;-78
2023/11/27 06:18:15;;;;;;;7.95;3.88;;;;;;;4.68;52.54;99969.06;4900601;29;20056;-79
2023/11/27 06:20:43;;;;;;;5.80;3.35;;;;;;;4.68;52.48;99971.78;4917621;29;20052;-78
2023/11/27 06:23:11;;;;;;;6.13;3.50;;;;;;;4.66;52.99;99946.63;4917904;29;20412;-79
2023/11/27 06:25:39;;;;;;;6.55;3.65;;;;;;;4.64;52.71;99956.72;4918133;29;20048;-78
2023/11/27 06:28:13;;;;;;;8.73;3.85;;;;;;;4.63;52.70;99952.31;4928742;29;20567;-78
2023/11/27 06:30:41;;;;;;;6.65;3.40;;;;;;;4.57;52.45;99955.47;4918173;29;20050;-77
2023/11/27 06:33:09;;;;;;;5.65;3.30;;;;;;;4.55;52.44;99952.03;4900560;29;20047;-77
2023/11/27 06:35:37;;;;;;;5.93;3.17;;;;;;;4.52;52.57;99949.53;4916409;29;20083;-77
2023/11/27 06:38:06;;;;;;;5.13;3.17;;;;;;;4.48;52.60;99940.78;4882796;29;20055;-79
2023/11/27 06:40:33;;;;;;;5.10;3.13;;;;;;;4.45;52.59;99932.91;4916919;29;20056;-78
2023/11/27 06:43:15;;;;;;;5.72;3.03;;;;;;;4.40;53.08;99910.69;4916320;29;20056;-77
2023/11/27 06:45:43;;;;;;;5.45;2.83;;;;;;;4.38;52.88;99901.84;4916270;29;20044;-80
2023/11/27 06:48:12;;;;;;;7.00;3.22;;;;;;;4.34;53.21;99886.81;4919120;29;20039;-81
2023/11/27 06:50:40;;;;;;;6.43;3.58;;;;;;;4.31;53.17;99889.75;4916664;29;20332;-80
2023/11/27 06:53:12;;;;;;;5.05;3.00;;;;;;;4.30;52.98;99879.03;4917131;29;20052;-78
2023/11/27 06:55:43;;;;;;;6.22;3.53;;;;;;;4.25;53.15;99857.72;4916224;29;20600;-78
2023/11/27 06:58:11;;;;;;;5.28;2.92;;;;;;;4.24;53.29;99860.53;4915780;29;20055;-80
2023/11/27 07:00:41;;;;;;;4.43;2.65;;;;;;;4.24;53.44;99863.25;4914600;29;20696;-80
2023/11/27 07:03:09;;;;;;;5.75;3.10;;;;;;;4.21;53.39;99868.91;4906475;29;20051;-81
2023/11/27 07:05:37;;;;;;;5.22;3.17;;;;;;;4.19;53.35;99870.88;4928183;29;20054;-79
2023/11/27 07:08:05;;;;;;;5.22;2.97;;;;;;;4.18;53.49;99864.59;4928140;29;20088;-77
2023/11/27 07:10:33;;;;;;;6.60;2.90;;;;;;;4.16;53.60;99858.41;4895953;29;20151;-81
2023/11/27 07:13:01;;;;;;;5.55;2.90;;;;;;;4.16;53.59;99844.88;4897569;29;20068;-78
2023/11/27 07:15:29;;;;;;;4.82;2.78;;;;;;;4.14;53.52;99841.44;4895432;29;20085;-80
2023/11/27 07:17:59;;;;;;;5.82;3.03;;;;;;;4.13;53.75;99847.84;4896505;29;20135;-80
2023/11/27 07:20:45;;;;;;;7.68;3.00;;;;;;;4.11;53.91;99856.09;4896883;29;20514;-79
2023/11/27 07:23:14;;;;;;;4.28;2.65;;;;;;;4.10;53.85;99846.22;4895296;29;20080;-80
2023/11/27 07:25:43;;;;;;;6.45;2.97;;;;;;;4.08;53.64;99850.03;4898018;29;20459;-78
2023/11/27 07:28:12;;;;;;;5.38;3.15;;;;;;;4.06;53.75;99842.00;4895350;29;20127;-77
2023/11/27 07:30:40;;;;;;;5.28;3.30;;;;;;;4.05;53.74;99850.28;5005421;23;20051;-78
2023/11/27 07:33:10;;;;;;;5.93;3.40;;;;;;;4.04;54.15;99841.28;4960125;28;20131;-81
2023/11/27 07:35:39;;;;;;;5.50;3.50;;;;;;;4.01;54.08;99844.22;4938334;29;20419;-80
2023/11/27 07:38:07;;;;;;;5.28;3.08;;;;;;;4.00;54.06;99841.63;4967928;28;20053;-80
2023/11/27 07:40:35;;;;;;;6.28;3.10;;;;;;;3.98;54.24;99833.63;4971709;28;20061;-79
2023/11/27 07:43:09;;;;;;;5.97;3.25;;;;;;;3.96;54.25;99827.47;4973082;28;20129;-81
2023/11/27 07:45:38;;;;;;;5.32;3.25;;;;;;;3.94;54.35;99815.91;4972537;28;20381;-80
2023/11/27 07:48:06;;;;;;;6.30;3.60;;;;;;;3.92;54.24;99803.44;4947770;29;20082;-80
2023/11/27 07:50:36;;;;;;;6.40;3.15;;;;;;;3.90;54.29;99802.69;4954247;28;20492;-81
2023/11/27 07:53:04;;;;;;;5.25;3.00;;;;;;;3.89;54.15;99791.03;4953681;29;20538;-81
2023/11/27 07:55:33;;;;;;;6.35;3.05;;;;;;;3.88;54.25;99804.69;4954387;28;20047;-80
2023/11/27 07:58:02;;;;;;;5.35;2.97;;;;;;;3.88;54.27;99797.44;4951862;29;20070;-79
2023/11/27 08:00:31;;;;;;;4.93;2.97;;;;;;;3.87;54.59;99789.41;4943255;29;20051;-80
2023/11/27 08:02:59;;;;;;;5.50;2.78;;;;;;;3.84;54.51;99782.38;4968427;28;20058;-81
2023/11/27 08:05:29;;;;;;;4.65;2.58;;;;;;;3.84;54.36;99776.97;4953928;28;20047;-79
2023/11/27 08:07:59;;;;;;;4.30;2.70;;;;;;;3.85;54.51;99777.84;4969029;28;20063;-79
2023/11/27 08:10:28;;;;;;;4.22;2.60;;;;;;;3.83;54.61;99772.53;4956922;29;20102;-79
2023/11/27 08:12:56;;;;;;;4.95;2.50;;;;;;;3.82;54.49;99768.09;4972514;28;20414;-80
2023/11/27 08:15:25;;;;;;;5.30;2.72;;;;;;;3.81;54.58;99755.59;4956039;29;20078;-80
2023/11/27 08:17:55;;;;;;;4.95;2.58;;;;;;;3.82;54.50;99754.56;4957635;28;20051;-80
2023/11/27 08:20:28;;;;;;;5.15;3.00;;;;;;;3.81;54.46;99749.31;4972790;28;20074;-78
2023/11/27 08:22:58;;;;;;;4.85;3.05;;;;;;;3.77;54.32;99746.81;4956767;29;20051;-79
2023/11/27 08:25:28;;;;;;;4.65;2.85;;;;;;;3.76;54.53;99736.97;4971861;28;20107;-77
2023/11/27 08:27:57;;;;;;;4.55;2.75;;;;;;;3.75;54.70;99732.53;4948917;28;20040;-77
2023/11/27 08:30:27;;;;;;;4.45;2.80;;;;;;;3.75;54.38;99737.09;4940974;29;20082;-78
2023/11/27 08:32:56;;;;;;;4.03;2.75;;;;;;;3.72;54.47;99721.97;4936314;29;20441;-77
2023/11/27 08:35:24;;;;;;;5.05;2.38;;;;;;;3.73;54.51;99725.50;4963164;28;20047;-77
2023/11/27 08:37:52;;;;;;;4.78;2.80;;;;;;;3.69;54.60;99719.50;4963963;28;20047;-77
2023/11/27 08:40:21;;;;;;;4.75;2.47;;;;;;;3.70;54.55;99707.69;4968633;28;20043;-77
2023/11/27 08:42:51;;;;;;;4.70;2.78;;;;;;;3.69;54.42;99711.38;4949731;28;20098;-77
2023/11/27 08:45:19;;;;;;;4.38;2.83;;;;;;;3.67;54.43;99710.63;4964673;28;20235;-77
2023/11/27 08:47:50;;;;;;;4.75;2.50;;;;;;;3.66;54.58;99711.59;4964880;28;20051;-77
2023/11/27 08:50:24;;;;;;;4.18;2.80;;;;;;;3.63;54.63;99709.16;4965292;28;20046;-77
2023/11/27 08:52:56;;;;;;;4.78;2.78;;;;;;;3.61;54.83;99702.13;4960771;28;20364;-79
2023/11/27 08:55:28;;;;;;;4.25;2.63;;;;;;;3.59;54.93;99690.56;4961040;28;20097;-78
2023/11/27 08:58:00;;;;;;;4.85;2.90;;;;;;;3.61;54.63;99694.88;4945630;28;20047;-77
2023/11/27 09:00:29;;;;;;;3.72;2.35;;;;;;;3.56;54.97;99702.50;4962229;28;20579;-77
2023/11/27 09:02:58;;;;;;;4.70;2.70;;;;;;;3.58;54.73;99684.28;4939373;28;20161;-76
2023/11/27 09:05:30;;;;;;;4.00;2.65;;;;;;;3.56;54.70;99675.44;4964808;28;20035;-77
2023/11/27 09:08:00;;;;;;;4.30;2.70;;;;;;;3.54;54.85;99674.69;4941332;28;20051;-77
2023/11/27 09:10:28;;;;;;;4.32;2.70;;;;;;;3.55;54.83;99678.25;4965170;28;20051;-77
2023/11/27 09:12:58;;;;;;;4.20;2.58;;;;;;;3.55;54.88;99673.72;4964984;28;20098;-77
2023/11/27 09:15:26;;;;;;;6.35;3.15;;;;;;;3.53;54.86;99654.03;4948214;28;20448;-76
2023/11/27 09:17:54;;;;;;;3.85;2.40;;;;;;;3.55;54.63;99667.44;4959909;28;20043;-76
2023/11/27 09:20:22;;;;;;;4.40;2.30;;;;;;;3.54;54.97;99665.72;4961689;28;20456;-77
2023/11/27 09:22:50;;;;;;;3.70;2.40;;;;;;;3.53;55.07;99645.91;4959883;28;20226;-76
2023/11/27 09:25:18;;;;;;;4.45;2.63;;;;;;;3.53;55.10;99659.44;4941113;28;20039;-76
2023/11/27 09:27:46;;;;;;;3.80;2.53;;;;;;;3.53;55.07;99659.44;4958837;28;20043;-77
2023/11/27 09:30:16;;;;;;;4.45;2.50;;;;;;;3.53;54.98;99642.34;4955922;28;20165;-76
2023/11/27 09:32:44;;;;;;;4.40;2.63;;;;;;;3.51;55.00;99649.69;4943787;28;20051;-76
2023/11/27 09:35:12;;;;;;;3.40;2.25;;;;;;;3.51;54.94;99645.16;4961192;28;20106;-75
2023/11/27 09:37:40;;;;;;;4.18;2.60;;;;;;;3.49;55.15;99630.88;4966084;28;20060;-76
2023/11/27 09:40:10;;;;;;;4.28;2.80;;;;;;;3.48;55.22;99631.03;4943609;28;20524;-75
2023/11/27 09:42:40;;;;;;;4.47;2.22;;;;;;;3.48;55.04;99612.09;4958665;28;20349;-76
2023/11/27 09:45:18;;;;;;;3.47;2.22;;;;;;;3.47;55.26;99613.94;4958459;28;20331;-77
2023/11/27 09:47:49;;;;;;;4.45;2.15;;;;;;;3.46;55.17;99617.63;4964299;28;20057;-76
2023/11/27 09:50:20;;;;;;;3.38;2.03;;;;;;;3.44;55.33;99614.16;4961492;28;20098;-76
2023/11/27 09:53:00;;;;;;;3.92;2.03;;;;;;;3.47;55.53;99613.06;4948514;28;20443;-76
2023/11/27 09:55:31;;;;;;;3.40;2.13;;;;;;;3.45;55.17;99604.22;4957450;28;20074;-76
2023/11/27 09:57:59;;;;;;;4.47;2.33;;;;;;;3.43;55.48;99592.63;4963849;28;20138;-63
2023/11/27 10:00:31;;;;;;;3.58;2.10;;;;;;;3.44;55.68;99589.81;4963032;28;20054;-78
2023/11/27 10:02:59;;;;;;;3.67;2.30;;;;;;;3.42;55.68;99590.91;4956825;28;20054;-77
2023/11/27 10:05:28;;;;;;;2.55;1.88;;;;;;;3.44;55.45;99587.13;4955911;28;20050;-77
2023/11/27 10:07:57;;;;;;;4.68;2.15;;;;;;;3.43;55.35;99582.69;4959391;28;20441;-77
2023/11/27 10:10:26;;;;;;;4.13;2.00;;;;;;;3.44;55.26;99570.88;4961060;28;20127;-76
2023/11/27 10:12:58;;;;;;;4.13;2.08;;;;;;;3.46;55.23;99559.94;4962880;28;20084;-76
2023/11/27 10:15:28;;;;;;;3.33;2.00;;;;;;;3.42;55.51;99548.50;4960734;28;20050;-78
2023/11/27 10:17:58;;;;;;;3.55;2.00;;;;;;;3.43;55.31;99555.63;4960406;28;20038;-77
2023/11/27 10:20:29;;;;;;;2.85;1.70;;;;;;;3.41;55.37;99544.06;4952646;28;20040;-77
2023/11/27 10:22:58;;;;;;;3.97;2.08;;;;;;;3.39;55.37;99536.09;4960322;28;20074;-76
2023/11/27 10:25:29;;;;;;;3.03;1.90;;;;;;;3.40;55.49;99547.75;4961552;28;20504;-77
2023/11/27 10:28:00;;;;;;;3.28;2.00;;;;;;;3.40;55.46;99526.13;4957258;28;20413;-77
2023/11/27 10:30:31;;;;;;;3.33;2.10;;;;;;;3.39;55.60;99522.59;4962675;28;20109;-77
2023/11/27 10:33:01;;;;;;;3.67;1.83;;;;;;;3.37;55.66;99512.84;4961025;28;20153;-77
2023/11/27 10:35:32;;;;;;;2.85;1.83;;;;;;;3.39;55.51;99497.38;4958325;28;20047;-75
2023/11/27 10:38:01;;;;;;;3.53;1.90;;;;;;;3.35;55.63;99499.44;4961413;28;20051;-76
2023/11/27 10:40:29;;;;;;;3.47;1.95;;;;;;;3.36;55.53;99506.59;4961662;28;20039;-76
2023/11/27 10:43:00;;;;;;;3.65;1.77;;;;;;;3.36;55.56;99487.66;4959024;28;20047;-76
2023/11/27 10:45:33;;;;;;;3.78;1.88;;;;;;;3.35;55.49;99474.25;4958564;28;20039;-75
2023/11/27 10:48:03;;;;;;;3.40;1.70;;;;;;;3.34;55.63;99477.94;4956732;28;20094;-76
2023/11/27 10:50:32;;;;;;;2.35;1.67;;;;;;;3.34;55.42;99465.28;4958651;28;20051;-76
2023/11/27 10:53:01;;;;;;;3.50;2.03;;;;;;;3.34;55.57;99472.53;4958798;28;20047;-76
2023/11/27 10:55:30;;;;;;;2.47;1.70;;;;;;;3.34;55.87;99461.72;4957483;28;20065;-75
2023/11/27 10:58:00;;;;;;;3.15;1.80;;;;;;;3.33;55.83;99455.44;4940107;28;20160;-77
2023/11/27 11:00:32;;;;;;;3.90;2.00;;;;;;;3.32;55.57;99450.16;4958328;28;20051;-76
2023/11/27 11:03:06;;;;;;;3.55;1.80;;;;;;;3.30;55.63;99461.09;4957219;28;20553;-76
2023/11/27 11:05:42;;;;;;;2.45;1.70;;;;;;;3.31;55.93;99445.75;4944832;28;20090;-76
2023/11/27 11:08:12;;;;;;;3.25;1.85;;;;;;;3.28;55.75;99438.69;4954571;28;20516;-75
2023/11/27 11:10:41;;;;;;;2.67;1.80;;;;;;;3.29;55.65;99435.03;4958947;28;20070;-77
2023/11/27 11:13:13;;;;;;;2.58;1.80;;;;;;;3.30;55.69;99417.81;4960846;28;20038;-75
2023/11/27 11:15:51;;;;;;;3.63;1.80;;;;;;;3.27;56.44;99420.75;4948715;28;20043;-76
2023/11/27 11:18:31;;;;;;;3.13;1.70;;;;;;;3.29;56.12;99416.09;4952425;28;20038;-77
2023/11/27 11:21:29;;;;;;;4.68;2.00;;;;;;;3.27;56.40;99414.47;4959820;28;20535;-75
2023/11/27 11:24:08;;;;;;;3.50;1.80;;;;;;;3.27;55.83;99400.97;4961465;28;20046;-76
2023/11/27 11:26:48;;;;;;;3.10;1.60;;;;;;;3.29;56.05;99396.31;4960771;28;20057;-77
2023/11/27 11:29:26;;;;;;;2.65;1.80;;;;;;;3.28;56.03;99397.28;4956950;28;20054;-76
2023/11/27 11:32:01;;;;;;;3.47;1.75;;;;;;;3.30;56.38;99388.06;4961887;28;20045;-77
2023/11/27 11:34:32;;;;;;;3.03;1.80;;;;;;;3.28;56.05;99387.34;4956920;28;20049;-77
2023/11/27 11:37:03;;;;;;;3.28;1.85;;;;;;;3.28;55.94;99371.09;4955921;28;20595;-76
2023/11/27 11:39:32;;;;;;;3.78;1.90;;;;;;;3.27;56.02;99361.28;4957766;28;20607;-76
2023/11/27 11:42:02;;;;;;;3.28;2.08;;;;;;;3.28;55.91;99364.84;4945279;28;20520;-76
2023/11/27 11:44:34;;;;;;;2.83;1.92;;;;;;;3.27;56.08;99350.47;4956379;28;20443;-76
2023/11/27 11:47:23;;;;;;;2.60;1.60;;;;;;;3.29;56.50;99347.63;4939822;28;20077;-76